sensor_id;sensor_type;location;lat;lon;timestamp;P1;durP1;ratioP1;P2;durP2;ratioP2
8704;SDS011;4389;41.932;25.904;2023-08-21T00:01:48;7.57;;;4.27;;
8704;SDS011;4389;41.932;25.904;2023-08-21T00:04:14;5.93;;;3.73;;
8704;SDS011;4389;41.932;25.904;2023-08-21T00:06:41;8.30;;;3.80;;
8704;SDS011;4389;41.932;25.904;2023-08-21T00:09:08;4.37;;;3.97;;
8704;SDS011;4389;41.932;25.904;2023-08-21T00:11:36;8.03;;;5.30;;
8704;SDS011;4389;41.932;25.904;2023-08-21T00:14:03;5.20;;;4.00;;
8704;SDS011;4389;41.932;25.904;2023-08-21T00:16:30;6.13;;;4.10;;
8704;SDS011;4389;41.932;25.904;2023-08-21T00:18:57;9.20;;;3.70;;
8704;SDS011;4389;41.932;25.904;2023-08-21T00:21:24;11.27;;;4.13;;
8704;SDS011;4389;41.932;25.904;2023-08-21T00:23:51;6.60;;;4.10;;
8704;SDS011;4389;41.932;25.904;2023-08-21T00:26:18;10.97;;;4.67;;
8704;SDS011;4389;41.932;25.904;2023-08-21T00:28:46;5.97;;;4.57;;
8704;SDS011;4389;41.932;25.904;2023-08-21T00:31:13;12.70;;;4.67;;
8704;SDS011;4389;41.932;25.904;2023-08-21T00:33:40;6.80;;;4.93;;
8704;SDS011;4389;41.932;25.904;2023-08-21T00:36:07;8.23;;;4.57;;
8704;SDS011;4389;41.932;25.904;2023-08-21T00:38:34;7.87;;;4.63;;
8704;SDS011;4389;41.932;25.904;2023-08-21T00:41:01;6.57;;;4.10;;
8704;SDS011;4389;41.932;25.904;2023-08-21T00:43:28;7.17;;;4.07;;
8704;SDS011;4389;41.932;25.904;2023-08-21T00:45:56;9.07;;;4.63;;
8704;SDS011;4389;41.932;25.904;2023-08-21T00:48:23;8.60;;;4.50;;
8704;SDS011;4389;41.932;25.904;2023-08-21T00:50:51;7.53;;;4.30;;
8704;SDS011;4389;41.932;25.904;2023-08-21T00:53:19;4.83;;;4.43;;
8704;SDS011;4389;41.932;25.904;2023-08-21T00:55:46;9.33;;;4.43;;
8704;SDS011;4389;41.932;25.904;2023-08-21T00:58:13;7.50;;;4.67;;
8704;SDS011;4389;41.932;25.904;2023-08-21T01:00:41;6.57;;;4.27;;
8704;SDS011;4389;41.932;25.904;2023-08-21T01:03:12;11.23;;;4.50;;
8704;SDS011;4389;41.932;25.904;2023-08-21T01:05:38;8.93;;;4.53;;
8704;SDS011;4389;41.932;25.904;2023-08-21T01:08:10;11.73;;;5.03;;
8704;SDS011;4389;41.932;25.904;2023-08-21T01:10:45;6.30;;;4.70;;
8704;SDS011;4389;41.932;25.904;2023-08-21T01:13:19;5.67;;;4.30;;
8704;SDS011;4389;41.932;25.904;2023-08-21T01:15:53;4.93;;;4.20;;
8704;SDS011;4389;41.932;25.904;2023-08-21T01:18:25;8.40;;;4.50;;
8704;SDS011;4389;41.932;25.904;2023-08-21T01:20:54;5.13;;;4.20;;
8704;SDS011;4389;41.932;25.904;2023-08-21T01:23:30;7.90;;;5.07;;
8704;SDS011;4389;41.932;25.904;2023-08-21T01:25:57;5.87;;;4.40;;
8704;SDS011;4389;41.932;25.904;2023-08-21T01:28:24;8.00;;;4.93;;
8704;SDS011;4389;41.932;25.904;2023-08-21T01:30:54;10.03;;;5.23;;
8704;SDS011;4389;41.932;25.904;2023-08-21T01:33:27;8.10;;;5.17;;
8704;SDS011;4389;41.932;25.904;2023-08-21T01:35:57;9.07;;;5.00;;
8704;SDS011;4389;41.932;25.904;2023-08-21T01:38:30;10.00;;;5.00;;
8704;SDS011;4389;41.932;25.904;2023-08-21T01:40:58;8.27;;;5.43;;
8704;SDS011;4389;41.932;25.904;2023-08-21T01:43:25;13.90;;;5.00;;
8704;SDS011;4389;41.932;25.904;2023-08-21T01:45:52;6.60;;;4.70;;
8704;SDS011;4389;41.932;25.904;2023-08-21T01:48:19;8.80;;;5.30;;
8704;SDS011;4389;41.932;25.904;2023-08-21T01:50:46;5.60;;;4.77;;
8704;SDS011;4389;41.932;25.904;2023-08-21T01:53:12;5.53;;;4.90;;
8704;SDS011;4389;41.932;25.904;2023-08-21T01:55:40;8.00;;;5.23;;
8704;SDS011;4389;41.932;25.904;2023-08-21T01:58:07;8.83;;;4.93;;
8704;SDS011;4389;41.932;25.904;2023-08-21T02:00:34;8.60;;;5.03;;
8704;SDS011;4389;41.932;25.904;2023-08-21T02:03:01;7.63;;;4.83;;
8704;SDS011;4389;41.932;25.904;2023-08-21T02:05:27;9.17;;;5.17;;
8704;SDS011;4389;41.932;25.904;2023-08-21T02:07:54;9.37;;;5.30;;
8704;SDS011;4389;41.932;25.904;2023-08-21T02:10:21;8.53;;;4.83;;
8704;SDS011;4389;41.932;25.904;2023-08-21T02:12:49;9.43;;;4.70;;
8704;SDS011;4389;41.932;25.904;2023-08-21T02:15:17;10.30;;;5.47;;
8704;SDS011;4389;41.932;25.904;2023-08-21T02:17:44;7.63;;;5.10;;
8704;SDS011;4389;41.932;25.904;2023-08-21T02:20:10;7.57;;;5.20;;
8704;SDS011;4389;41.932;25.904;2023-08-21T02:22:37;8.73;;;5.33;;
8704;SDS011;4389;41.932;25.904;2023-08-21T02:25:04;7.80;;;4.80;;
8704;SDS011;4389;41.932;25.904;2023-08-21T02:27:31;9.90;;;5.60;;
8704;SDS011;4389;41.932;25.904;2023-08-21T02:30:00;9.03;;;5.87;;
8704;SDS011;4389;41.932;25.904;2023-08-21T02:32:27;9.43;;;5.67;;
8704;SDS011;4389;41.932;25.904;2023-08-21T02:34:54;8.27;;;5.40;;
8704;SDS011;4389;41.932;25.904;2023-08-21T02:37:20;9.10;;;5.33;;
8704;SDS011;4389;41.932;25.904;2023-08-21T02:39:47;9.63;;;5.57;;
8704;SDS011;4389;41.932;25.904;2023-08-21T02:42:14;7.40;;;6.13;;
8704;SDS011;4389;41.932;25.904;2023-08-21T02:44:41;7.93;;;5.70;;
8704;SDS011;4389;41.932;25.904;2023-08-21T02:47:09;10.73;;;5.57;;
8704;SDS011;4389;41.932;25.904;2023-08-21T02:49:36;10.27;;;5.23;;
8704;SDS011;4389;41.932;25.904;2023-08-21T02:52:03;6.80;;;5.40;;
8704;SDS011;4389;41.932;25.904;2023-08-21T02:54:30;18.67;;;6.37;;
8704;SDS011;4389;41.932;25.904;2023-08-21T02:56:57;28.63;;;6.80;;
8704;SDS011;4389;41.932;25.904;2023-08-21T02:59:24;14.37;;;5.77;;
8704;SDS011;4389;41.932;25.904;2023-08-21T03:01:51;19.07;;;6.50;;
8704;SDS011;4389;41.932;25.904;2023-08-21T03:04:20;22.23;;;6.37;;
8704;SDS011;4389;41.932;25.904;2023-08-21T03:06:48;12.43;;;6.03;;
8704;SDS011;4389;41.932;25.904;2023-08-21T03:09:14;16.30;;;6.17;;
8704;SDS011;4389;41.932;25.904;2023-08-21T03:11:41;11.57;;;6.03;;
8704;SDS011;4389;41.932;25.904;2023-08-21T03:14:08;14.80;;;5.73;;
8704;SDS011;4389;41.932;25.904;2023-08-21T03:16:35;10.67;;;6.60;;
8704;SDS011;4389;41.932;25.904;2023-08-21T03:19:02;11.57;;;6.80;;
8704;SDS011;4389;41.932;25.904;2023-08-21T03:21:30;12.30;;;6.90;;
8704;SDS011;4389;41.932;25.904;2023-08-21T03:23:57;12.90;;;6.90;;
8704;SDS011;4389;41.932;25.904;2023-08-21T03:26:25;12.13;;;7.20;;
8704;SDS011;4389;41.932;25.904;2023-08-21T03:28:52;7.83;;;7.07;;
8704;SDS011;4389;41.932;25.904;2023-08-21T03:31:19;13.00;;;7.70;;
8704;SDS011;4389;41.932;25.904;2023-08-21T03:33:45;12.07;;;8.10;;
8704;SDS011;4389;41.932;25.904;2023-08-21T03:36:13;12.93;;;7.23;;
8704;SDS011;4389;41.932;25.904;2023-08-21T03:38:42;20.83;;;8.10;;
8704;SDS011;4389;41.932;25.904;2023-08-21T03:41:09;13.23;;;6.83;;
8704;SDS011;4389;41.932;25.904;2023-08-21T03:43:36;11.07;;;6.73;;
8704;SDS011;4389;41.932;25.904;2023-08-21T03:46:03;7.47;;;6.63;;
8704;SDS011;4389;41.932;25.904;2023-08-21T03:48:30;9.67;;;5.93;;
8704;SDS011;4389;41.932;25.904;2023-08-21T03:50:56;10.30;;;6.23;;
8704;SDS011;4389;41.932;25.904;2023-08-21T03:53:23;10.90;;;6.30;;
8704;SDS011;4389;41.932;25.904;2023-08-21T03:55:52;7.73;;;6.07;;
8704;SDS011;4389;41.932;25.904;2023-08-21T03:58:19;14.80;;;6.37;;
8704;SDS011;4389;41.932;25.904;2023-08-21T04:00:45;11.00;;;5.83;;
8704;SDS011;4389;41.932;25.904;2023-08-21T04:03:12;9.50;;;6.00;;
8704;SDS011;4389;41.932;25.904;2023-08-21T04:05:39;10.83;;;6.13;;
8704;SDS011;4389;41.932;25.904;2023-08-21T04:08:06;11.03;;;5.80;;
8704;SDS011;4389;41.932;25.904;2023-08-21T04:10:33;6.50;;;5.90;;
8704;SDS011;4389;41.932;25.904;2023-08-21T04:13:01;18.03;;;6.43;;
8704;SDS011;4389;41.932;25.904;2023-08-21T04:15:28;203.23;;;18.50;;
8704;SDS011;4389;41.932;25.904;2023-08-21T04:17:55;49.00;;;11.37;;
8704;SDS011;4389;41.932;25.904;2023-08-21T04:20:22;36.50;;;13.60;;
8704;SDS011;4389;41.932;25.904;2023-08-21T04:22:49;21.93;;;10.47;;
8704;SDS011;4389;41.932;25.904;2023-08-21T04:25:16;17.47;;;9.33;;
8704;SDS011;4389;41.932;25.904;2023-08-21T04:27:43;13.50;;;9.00;;
8704;SDS011;4389;41.932;25.904;2023-08-21T04:30:12;12.77;;;8.87;;
8704;SDS011;4389;41.932;25.904;2023-08-21T04:32:39;17.30;;;9.10;;
8704;SDS011;4389;41.932;25.904;2023-08-21T04:35:06;15.60;;;8.37;;
8704;SDS011;4389;41.932;25.904;2023-08-21T04:37:34;9.84;;;8.19;;
8704;SDS011;4389;41.932;25.904;2023-08-21T04:40:01;12.82;;;8.13;;
8704;SDS011;4389;41.932;25.904;2023-08-21T04:42:28;19.98;;;8.43;;
8704;SDS011;4389;41.932;25.904;2023-08-21T04:44:54;21.10;;;8.18;;
8704;SDS011;4389;41.932;25.904;2023-08-21T04:47:23;9.30;;;7.55;;
8704;SDS011;4389;41.932;25.904;2023-08-21T04:49:51;17.05;;;9.02;;
8704;SDS011;4389;41.932;25.904;2023-08-21T04:52:19;19.90;;;10.43;;
8704;SDS011;4389;41.932;25.904;2023-08-21T04:54:47;19.53;;;9.07;;
8704;SDS011;4389;41.932;25.904;2023-08-21T04:57:14;24.93;;;9.20;;
8704;SDS011;4389;41.932;25.904;2023-08-21T04:59:41;20.00;;;9.80;;
8704;SDS011;4389;41.932;25.904;2023-08-21T05:02:08;14.63;;;9.17;;
8704;SDS011;4389;41.932;25.904;2023-08-21T05:04:36;21.97;;;9.10;;
8704;SDS011;4389;41.932;25.904;2023-08-21T05:07:03;13.43;;;8.77;;
8704;SDS011;4389;41.932;25.904;2023-08-21T05:09:30;13.97;;;8.67;;
8704;SDS011;4389;41.932;25.904;2023-08-21T05:11:57;22.87;;;8.57;;
8704;SDS011;4389;41.932;25.904;2023-08-21T05:14:24;23.67;;;10.17;;
8704;SDS011;4389;41.932;25.904;2023-08-21T05:16:52;32.13;;;10.73;;
8704;SDS011;4389;41.932;25.904;2023-08-21T05:19:18;26.17;;;9.63;;
8704;SDS011;4389;41.932;25.904;2023-08-21T05:21:46;35.63;;;10.00;;
8704;SDS011;4389;41.932;25.904;2023-08-21T05:24:13;18.83;;;9.10;;
8704;SDS011;4389;41.932;25.904;2023-08-21T05:26:40;18.03;;;8.50;;
8704;SDS011;4389;41.932;25.904;2023-08-21T05:29:07;13.43;;;8.57;;
8704;SDS011;4389;41.932;25.904;2023-08-21T05:31:34;19.43;;;9.13;;
8704;SDS011;4389;41.932;25.904;2023-08-21T05:34:01;28.07;;;10.13;;
8704;SDS011;4389;41.932;25.904;2023-08-21T05:36:28;21.73;;;8.90;;
8704;SDS011;4389;41.932;25.904;2023-08-21T05:38:57;19.43;;;8.60;;
8704;SDS011;4389;41.932;25.904;2023-08-21T05:41:24;17.40;;;8.60;;
8704;SDS011;4389;41.932;25.904;2023-08-21T05:43:50;18.43;;;10.10;;
8704;SDS011;4389;41.932;25.904;2023-08-21T05:46:17;13.03;;;8.20;;
8704;SDS011;4389;41.932;25.904;2023-08-21T05:48:44;21.93;;;9.00;;
8704;SDS011;4389;41.932;25.904;2023-08-21T05:51:11;16.33;;;8.43;;
8704;SDS011;4389;41.932;25.904;2023-08-21T05:53:38;17.67;;;8.75;;
8704;SDS011;4389;41.932;25.904;2023-08-21T05:56:06;12.80;;;7.80;;
8704;SDS011;4389;41.932;25.904;2023-08-21T05:58:33;14.50;;;7.65;;
8704;SDS011;4389;41.932;25.904;2023-08-21T06:01:00;12.68;;;7.72;;
8704;SDS011;4389;41.932;25.904;2023-08-21T06:03:27;12.32;;;7.38;;
8704;SDS011;4389;41.932;25.904;2023-08-21T06:05:54;14.23;;;9.07;;
8704;SDS011;4389;41.932;25.904;2023-08-21T06:08:21;12.95;;;9.32;;
8704;SDS011;4389;41.932;25.904;2023-08-21T06:10:50;19.77;;;9.98;;
8704;SDS011;4389;41.932;25.904;2023-08-21T06:13:19;13.93;;;7.85;;
8704;SDS011;4389;41.932;25.904;2023-08-21T06:15:46;15.48;;;8.68;;
8704;SDS011;4389;41.932;25.904;2023-08-21T06:18:13;24.40;;;9.18;;
8704;SDS011;4389;41.932;25.904;2023-08-21T06:20:41;12.60;;;7.38;;
8704;SDS011;4389;41.932;25.904;2023-08-21T06:23:08;11.15;;;6.72;;
8704;SDS011;4389;41.932;25.904;2023-08-21T06:25:35;36.75;;;8.05;;
8704;SDS011;4389;41.932;25.904;2023-08-21T06:28:02;15.90;;;7.35;;
8704;SDS011;4389;41.932;25.904;2023-08-21T06:30:31;13.25;;;6.95;;
8704;SDS011;4389;41.932;25.904;2023-08-21T06:32:58;16.27;;;6.32;;
8704;SDS011;4389;41.932;25.904;2023-08-21T06:35:25;18.88;;;6.20;;
8704;SDS011;4389;41.932;25.904;2023-08-21T06:37:52;11.40;;;6.15;;
8704;SDS011;4389;41.932;25.904;2023-08-21T06:40:20;15.60;;;5.95;;
8704;SDS011;4389;41.932;25.904;2023-08-21T06:42:46;11.68;;;5.97;;
8704;SDS011;4389;41.932;25.904;2023-08-21T06:45:16;10.68;;;6.25;;
8704;SDS011;4389;41.932;25.904;2023-08-21T06:47:44;10.02;;;5.38;;
8704;SDS011;4389;41.932;25.904;2023-08-21T06:50:12;11.45;;;5.70;;
8704;SDS011;4389;41.932;25.904;2023-08-21T06:52:39;17.38;;;6.03;;
8704;SDS011;4389;41.932;25.904;2023-08-21T06:55:06;13.65;;;5.60;;
8704;SDS011;4389;41.932;25.904;2023-08-21T06:57:33;8.18;;;4.80;;
8704;SDS011;4389;41.932;25.904;2023-08-21T07:00:02;7.32;;;4.90;;
8704;SDS011;4389;41.932;25.904;2023-08-21T07:02:29;6.70;;;4.88;;
8704;SDS011;4389;41.932;25.904;2023-08-21T07:04:58;8.52;;;4.85;;
8704;SDS011;4389;41.932;25.904;2023-08-21T07:07:25;9.30;;;4.88;;
8704;SDS011;4389;41.932;25.904;2023-08-21T07:09:51;10.00;;;4.88;;
8704;SDS011;4389;41.932;25.904;2023-08-21T07:12:18;8.60;;;5.15;;
8704;SDS011;4389;41.932;25.904;2023-08-21T07:14:45;12.68;;;4.70;;
8704;SDS011;4389;41.932;25.904;2023-08-21T07:17:15;6.82;;;4.53;;
8704;SDS011;4389;41.932;25.904;2023-08-21T07:19:42;24.27;;;6.28;;
8704;SDS011;4389;41.932;25.904;2023-08-21T07:22:10;5.60;;;4.32;;
8704;SDS011;4389;41.932;25.904;2023-08-21T07:24:37;14.68;;;5.53;;
8704;SDS011;4389;41.932;25.904;2023-08-21T07:27:04;13.00;;;4.88;;
8704;SDS011;4389;41.932;25.904;2023-08-21T07:29:31;11.95;;;4.93;;
8704;SDS011;4389;41.932;25.904;2023-08-21T07:31:58;8.20;;;5.00;;
8704;SDS011;4389;41.932;25.904;2023-08-21T07:34:25;5.57;;;4.90;;
8704;SDS011;4389;41.932;25.904;2023-08-21T07:36:51;6.57;;;4.38;;
8704;SDS011;4389;41.932;25.904;2023-08-21T07:39:19;6.80;;;4.95;;
8704;SDS011;4389;41.932;25.904;2023-08-21T07:41:46;9.88;;;4.72;;
8704;SDS011;4389;41.932;25.904;2023-08-21T07:44:13;10.38;;;4.15;;
8704;SDS011;4389;41.932;25.904;2023-08-21T07:46:40;15.20;;;4.35;;
8704;SDS011;4389;41.932;25.904;2023-08-21T07:49:07;9.93;;;4.60;;
8704;SDS011;4389;41.932;25.904;2023-08-21T07:51:33;16.50;;;4.90;;
8704;SDS011;4389;41.932;25.904;2023-08-21T07:54:00;9.18;;;4.70;;
8704;SDS011;4389;41.932;25.904;2023-08-21T07:56:29;10.32;;;4.75;;
8704;SDS011;4389;41.932;25.904;2023-08-21T07:58:56;8.43;;;4.38;;
8704;SDS011;4389;41.932;25.904;2023-08-21T08:01:23;7.65;;;4.30;;
8704;SDS011;4389;41.932;25.904;2023-08-21T08:03:50;7.90;;;4.00;;
8704;SDS011;4389;41.932;25.904;2023-08-21T08:06:17;11.18;;;4.30;;
8704;SDS011;4389;41.932;25.904;2023-08-21T08:08:44;10.52;;;4.57;;
8704;SDS011;4389;41.932;25.904;2023-08-21T08:11:11;5.90;;;4.10;;
8704;SDS011;4389;41.932;25.904;2023-08-21T08:13:39;13.05;;;4.07;;
8704;SDS011;4389;41.932;25.904;2023-08-21T08:16:06;6.90;;;3.65;;
8704;SDS011;4389;41.932;25.904;2023-08-21T08:18:33;11.23;;;4.20;;
8704;SDS011;4389;41.932;25.904;2023-08-21T08:20:59;7.50;;;3.80;;
8704;SDS011;4389;41.932;25.904;2023-08-21T08:23:26;8.93;;;4.00;;
8704;SDS011;4389;41.932;25.904;2023-08-21T08:25:53;14.15;;;4.25;;
8704;SDS011;4389;41.932;25.904;2023-08-21T08:28:20;11.85;;;3.92;;
8704;SDS011;4389;41.932;25.904;2023-08-21T08:30:48;5.07;;;4.10;;
8704;SDS011;4389;41.932;25.904;2023-08-21T08:33:15;9.48;;;4.28;;
8704;SDS011;4389;41.932;25.904;2023-08-21T08:35:42;13.65;;;3.72;;
8704;SDS011;4389;41.932;25.904;2023-08-21T08:38:09;4.68;;;3.40;;
8704;SDS011;4389;41.932;25.904;2023-08-21T08:40:37;6.00;;;3.10;;
8704;SDS011;4389;41.932;25.904;2023-08-21T08:43:09;4.75;;;3.13;;
8704;SDS011;4389;41.932;25.904;2023-08-21T08:45:37;5.07;;;3.30;;
8704;SDS011;4389;41.932;25.904;2023-08-21T08:48:06;8.85;;;3.35;;
8704;SDS011;4389;41.932;25.904;2023-08-21T08:50:33;20.92;;;3.80;;
8704;SDS011;4389;41.932;25.904;2023-08-21T08:53:00;15.65;;;4.05;;
8704;SDS011;4389;41.932;25.904;2023-08-21T08:55:28;10.07;;;3.15;;
8704;SDS011;4389;41.932;25.904;2023-08-21T08:57:56;6.22;;;3.53;;
8704;SDS011;4389;41.932;25.904;2023-08-21T09:00:23;9.73;;;2.92;;
8704;SDS011;4389;41.932;25.904;2023-08-21T09:02:50;7.70;;;2.90;;
8704;SDS011;4389;41.932;25.904;2023-08-21T09:05:19;8.23;;;2.90;;
8704;SDS011;4389;41.932;25.904;2023-08-21T09:07:46;11.10;;;3.58;;
8704;SDS011;4389;41.932;25.904;2023-08-21T09:10:28;7.70;;;3.28;;
8704;SDS011;4389;41.932;25.904;2023-08-21T09:12:55;8.93;;;3.10;;
8704;SDS011;4389;41.932;25.904;2023-08-21T09:15:27;3.33;;;2.83;;
8704;SDS011;4389;41.932;25.904;2023-08-21T09:17:55;8.88;;;3.13;;
8704;SDS011;4389;41.932;25.904;2023-08-21T09:20:23;12.48;;;3.28;;
8704;SDS011;4389;41.932;25.904;2023-08-21T09:22:52;8.15;;;2.67;;
8704;SDS011;4389;41.932;25.904;2023-08-21T09:25:21;4.68;;;2.30;;
8704;SDS011;4389;41.932;25.904;2023-08-21T09:27:51;8.00;;;2.70;;
8704;SDS011;4389;41.932;25.904;2023-08-21T09:30:18;6.82;;;3.03;;
8704;SDS011;4389;41.932;25.904;2023-08-21T09:32:54;11.43;;;3.00;;
8704;SDS011;4389;41.932;25.904;2023-08-21T09:35:26;6.47;;;2.60;;
8704;SDS011;4389;41.932;25.904;2023-08-21T09:37:53;6.20;;;2.78;;
8704;SDS011;4389;41.932;25.904;2023-08-21T09:40:20;9.57;;;3.28;;
8704;SDS011;4389;41.932;25.904;2023-08-21T09:42:51;6.40;;;3.30;;
8704;SDS011;4389;41.932;25.904;2023-08-21T09:45:19;8.50;;;2.83;;
8704;SDS011;4389;41.932;25.904;2023-08-21T09:47:48;8.50;;;2.47;;
8704;SDS011;4389;41.932;25.904;2023-08-21T09:50:15;5.40;;;2.90;;
8704;SDS011;4389;41.932;25.904;2023-08-21T09:52:46;8.00;;;2.70;;
8704;SDS011;4389;41.932;25.904;2023-08-21T09:55:14;8.93;;;2.55;;
8704;SDS011;4389;41.932;25.904;2023-08-21T09:57:41;7.88;;;2.20;;
8704;SDS011;4389;41.932;25.904;2023-08-21T10:00:08;10.63;;;2.65;;
8704;SDS011;4389;41.932;25.904;2023-08-21T10:02:42;8.40;;;2.47;;
8704;SDS011;4389;41.932;25.904;2023-08-21T10:05:11;10.07;;;2.55;;
8704;SDS011;4389;41.932;25.904;2023-08-21T10:07:39;6.03;;;2.40;;
8704;SDS011;4389;41.932;25.904;2023-08-21T10:10:09;7.93;;;2.63;;
8704;SDS011;4389;41.932;25.904;2023-08-21T10:12:38;10.98;;;2.67;;
8704;SDS011;4389;41.932;25.904;2023-08-21T10:15:05;6.60;;;2.67;;
8704;SDS011;4389;41.932;25.904;2023-08-21T10:17:34;9.85;;;2.70;;
8704;SDS011;4389;41.932;25.904;2023-08-21T10:20:02;11.52;;;2.92;;
8704;SDS011;4389;41.932;25.904;2023-08-21T10:22:37;10.85;;;2.85;;
8704;SDS011;4389;41.932;25.904;2023-08-21T10:25:14;3.28;;;2.50;;
8704;SDS011;4389;41.932;25.904;2023-08-21T10:27:42;4.30;;;2.83;;
8704;SDS011;4389;41.932;25.904;2023-08-21T10:30:13;4.32;;;3.03;;
8704;SDS011;4389;41.932;25.904;2023-08-21T10:32:44;4.30;;;2.53;;
8704;SDS011;4389;41.932;25.904;2023-08-21T10:35:13;6.13;;;2.80;;
8704;SDS011;4389;41.932;25.904;2023-08-21T10:40:39;5.55;;;2.92;;
8704;SDS011;4389;41.932;25.904;2023-08-21T10:46:05;8.35;;;3.70;;
8704;SDS011;4389;41.932;25.904;2023-08-21T10:48:32;5.88;;;3.10;;
8704;SDS011;4389;41.932;25.904;2023-08-21T10:50:59;9.30;;;3.17;;
8704;SDS011;4389;41.932;25.904;2023-08-21T10:53:28;5.68;;;2.78;;
8704;SDS011;4389;41.932;25.904;2023-08-21T10:55:59;11.02;;;3.10;;
8704;SDS011;4389;41.932;25.904;2023-08-21T10:58:27;4.72;;;3.15;;
8704;SDS011;4389;41.932;25.904;2023-08-21T11:00:58;6.15;;;3.95;;
8704;SDS011;4389;41.932;25.904;2023-08-21T11:03:25;7.13;;;4.50;;
8704;SDS011;4389;41.932;25.904;2023-08-21T11:06:02;8.50;;;4.88;;
8704;SDS011;4389;41.932;25.904;2023-08-21T11:08:29;7.10;;;4.25;;
8704;SDS011;4389;41.932;25.904;2023-08-21T11:10:59;6.68;;;4.15;;
8704;SDS011;4389;41.932;25.904;2023-08-21T11:13:26;8.45;;;4.18;;
8704;SDS011;4389;41.932;25.904;2023-08-21T11:15:59;8.40;;;4.00;;
8704;SDS011;4389;41.932;25.904;2023-08-21T11:18:30;5.80;;;3.58;;
8704;SDS011;4389;41.932;25.904;2023-08-21T11:21:05;8.25;;;3.33;;
8704;SDS011;4389;41.932;25.904;2023-08-21T11:23:34;7.28;;;3.85;;
8704;SDS011;4389;41.932;25.904;2023-08-21T11:26:02;6.22;;;3.00;;
8704;SDS011;4389;41.932;25.904;2023-08-21T11:28:30;12.48;;;4.13;;
8704;SDS011;4389;41.932;25.904;2023-08-21T11:30:57;61.08;;;8.95;;
8704;SDS011;4389;41.932;25.904;2023-08-21T11:33:26;7.63;;;3.90;;
8704;SDS011;4389;41.932;25.904;2023-08-21T11:35:53;4.80;;;3.80;;
8704;SDS011;4389;41.932;25.904;2023-08-21T11:38:23;6.50;;;3.95;;
8704;SDS011;4389;41.932;25.904;2023-08-21T11:40:51;8.38;;;4.07;;
8704;SDS011;4389;41.932;25.904;2023-08-21T11:43:21;5.65;;;4.43;;
8704;SDS011;4389;41.932;25.904;2023-08-21T11:45:48;11.25;;;4.60;;
8704;SDS011;4389;41.932;25.904;2023-08-21T11:48:15;7.15;;;3.25;;
8704;SDS011;4389;41.932;25.904;2023-08-21T11:50:47;5.13;;;2.92;;
8704;SDS011;4389;41.932;25.904;2023-08-21T11:53:14;9.98;;;3.88;;
8704;SDS011;4389;41.932;25.904;2023-08-21T11:55:41;42.63;;;6.32;;
8704;SDS011;4389;41.932;25.904;2023-08-21T11:58:08;10.50;;;3.15;;
8704;SDS011;4389;41.932;25.904;2023-08-21T12:00:36;8.63;;;3.70;;
8704;SDS011;4389;41.932;25.904;2023-08-21T12:03:06;7.00;;;3.88;;
8704;SDS011;4389;41.932;25.904;2023-08-21T12:05:35;4.72;;;3.30;;
8704;SDS011;4389;41.932;25.904;2023-08-21T12:08:09;16.55;;;4.38;;
8704;SDS011;4389;41.932;25.904;2023-08-21T12:10:36;11.18;;;5.65;;
8704;SDS011;4389;41.932;25.904;2023-08-21T12:13:03;6.80;;;3.50;;
8704;SDS011;4389;41.932;25.904;2023-08-21T12:15:29;5.25;;;3.67;;
8704;SDS011;4389;41.932;25.904;2023-08-21T12:17:58;19.00;;;4.65;;
8704;SDS011;4389;41.932;25.904;2023-08-21T12:20:24;9.43;;;3.67;;
8704;SDS011;4389;41.932;25.904;2023-08-21T12:22:51;5.35;;;3.78;;
8704;SDS011;4389;41.932;25.904;2023-08-21T12:25:18;8.98;;;3.55;;
8704;SDS011;4389;41.932;25.904;2023-08-21T12:27:45;7.63;;;3.83;;
8704;SDS011;4389;41.932;25.904;2023-08-21T12:30:11;5.30;;;3.95;;
8704;SDS011;4389;41.932;25.904;2023-08-21T12:32:38;7.70;;;4.15;;
8704;SDS011;4389;41.932;25.904;2023-08-21T12:35:07;6.50;;;3.70;;
8704;SDS011;4389;41.932;25.904;2023-08-21T12:37:37;13.80;;;4.18;;
8704;SDS011;4389;41.932;25.904;2023-08-21T12:40:04;5.32;;;4.05;;
8704;SDS011;4389;41.932;25.904;2023-08-21T12:42:32;11.38;;;4.78;;
8704;SDS011;4389;41.932;25.904;2023-08-21T12:44:59;6.47;;;3.77;;
8704;SDS011;4389;41.932;25.904;2023-08-21T12:47:25;9.07;;;3.90;;
8704;SDS011;4389;41.932;25.904;2023-08-21T12:49:52;9.07;;;4.13;;
8704;SDS011;4389;41.932;25.904;2023-08-21T12:52:20;8.10;;;4.13;;
8704;SDS011;4389;41.932;25.904;2023-08-21T12:54:47;7.35;;;3.97;;
8704;SDS011;4389;41.932;25.904;2023-08-21T12:57:14;5.07;;;3.75;;
8704;SDS011;4389;41.932;25.904;2023-08-21T12:59:42;5.07;;;4.03;;
8704;SDS011;4389;41.932;25.904;2023-08-21T13:02:08;8.15;;;3.72;;
8704;SDS011;4389;41.932;25.904;2023-08-21T13:04:35;8.52;;;5.18;;
8704;SDS011;4389;41.932;25.904;2023-08-21T13:07:02;5.35;;;3.75;;
8704;SDS011;4389;41.932;25.904;2023-08-21T13:09:31;6.63;;;4.35;;
8704;SDS011;4389;41.932;25.904;2023-08-21T13:11:58;160.70;;;15.38;;
8704;SDS011;4389;41.932;25.904;2023-08-21T13:14:26;30.67;;;5.03;;
8704;SDS011;4389;41.932;25.904;2023-08-21T13:16:52;4.28;;;3.33;;
8704;SDS011;4389;41.932;25.904;2023-08-21T13:19:19;8.85;;;3.72;;
8704;SDS011;4389;41.932;25.904;2023-08-21T13:21:46;9.57;;;4.10;;
8704;SDS011;4389;41.932;25.904;2023-08-21T13:24:13;14.98;;;4.15;;
8704;SDS011;4389;41.932;25.904;2023-08-21T13:26:41;5.18;;;3.70;;
8704;SDS011;4389;41.932;25.904;2023-08-21T13:29:08;9.75;;;4.10;;
8704;SDS011;4389;41.932;25.904;2023-08-21T13:31:34;6.03;;;3.72;;
8704;SDS011;4389;41.932;25.904;2023-08-21T13:34:01;7.20;;;3.63;;
8704;SDS011;4389;41.932;25.904;2023-08-21T13:36:28;5.38;;;4.35;;
8704;SDS011;4389;41.932;25.904;2023-08-21T13:38:55;6.72;;;3.97;;
8704;SDS011;4389;41.932;25.904;2023-08-21T13:41:22;10.65;;;4.10;;
8704;SDS011;4389;41.932;25.904;2023-08-21T13:43:50;7.25;;;4.13;;
8704;SDS011;4389;41.932;25.904;2023-08-21T13:46:19;8.75;;;4.45;;
8704;SDS011;4389;41.932;25.904;2023-08-21T13:48:45;14.38;;;4.00;;
8704;SDS011;4389;41.932;25.904;2023-08-21T13:51:12;5.07;;;4.13;;
8704;SDS011;4389;41.932;25.904;2023-08-21T13:53:39;8.85;;;3.72;;
8704;SDS011;4389;41.932;25.904;2023-08-21T13:56:06;8.10;;;3.58;;
8704;SDS011;4389;41.932;25.904;2023-08-21T13:58:33;5.13;;;3.95;;
8704;SDS011;4389;41.932;25.904;2023-08-21T14:01:01;6.03;;;3.92;;
8704;SDS011;4389;41.932;25.904;2023-08-21T14:03:28;7.40;;;3.83;;
8704;SDS011;4389;41.932;25.904;2023-08-21T14:05:55;11.32;;;4.40;;
8704;SDS011;4389;41.932;25.904;2023-08-21T14:08:22;9.68;;;4.10;;
8704;SDS011;4389;41.932;25.904;2023-08-21T14:10:49;8.15;;;4.03;;
8704;SDS011;4389;41.932;25.904;2023-08-21T14:13:16;9.65;;;4.32;;
8704;SDS011;4389;41.932;25.904;2023-08-21T14:15:43;8.20;;;3.70;;
8704;SDS011;4389;41.932;25.904;2023-08-21T14:18:11;4.55;;;3.85;;
8704;SDS011;4389;41.932;25.904;2023-08-21T14:20:37;7.15;;;4.10;;
8704;SDS011;4389;41.932;25.904;2023-08-21T14:23:04;10.57;;;4.22;;
8704;SDS011;4389;41.932;25.904;2023-08-21T14:25:32;7.85;;;3.90;;
8704;SDS011;4389;41.932;25.904;2023-08-21T14:27:58;13.73;;;3.90;;
8704;SDS011;4389;41.932;25.904;2023-08-21T14:30:25;14.10;;;4.85;;
8704;SDS011;4389;41.932;25.904;2023-08-21T14:32:52;5.18;;;3.90;;
8704;SDS011;4389;41.932;25.904;2023-08-21T14:35:20;9.50;;;4.22;;
8704;SDS011;4389;41.932;25.904;2023-08-21T14:37:47;12.18;;;4.40;;
8704;SDS011;4389;41.932;25.904;2023-08-21T14:40:14;7.75;;;4.45;;
8704;SDS011;4389;41.932;25.904;2023-08-21T14:42:41;7.88;;;4.20;;
8704;SDS011;4389;41.932;25.904;2023-08-21T14:45:08;15.77;;;4.55;;
8704;SDS011;4389;41.932;25.904;2023-08-21T14:47:36;10.10;;;4.18;;
8704;SDS011;4389;41.932;25.904;2023-08-21T14:50:03;6.00;;;4.00;;
8704;SDS011;4389;41.932;25.904;2023-08-21T14:52:32;6.75;;;4.07;;
8704;SDS011;4389;41.932;25.904;2023-08-21T14:54:59;14.48;;;4.13;;
8704;SDS011;4389;41.932;25.904;2023-08-21T14:57:26;6.15;;;3.97;;
8704;SDS011;4389;41.932;25.904;2023-08-21T14:59:53;11.02;;;4.20;;
8704;SDS011;4389;41.932;25.904;2023-08-21T15:02:20;10.15;;;4.13;;
8704;SDS011;4389;41.932;25.904;2023-08-21T15:04:47;9.95;;;5.20;;